| time (UTC) | temp C | wind direction | speed KPH | gust KPH | rain 1hr cm | rain 24hr cm | rain mn cm | humidity % | barometer mb |
| 20260507143007 | 14 | 328 | 12.9 | 29.0 | 0.00 | 0.00 | 0.00 | 51 | 1016.2 |
| 20260507142506 | 14 | 322 | 12.9 | 25.7 | 0.00 | 0.00 | 0.00 | 51 | 1016.1 |
| 20260507142006 | 14 | 320 | 11.3 | 22.5 | 0.00 | 0.00 | 0.00 | 52 | 1016.2 |
| 20260507141506 | 14 | 324 | 9.7 | 25.7 | 0.00 | 0.00 | 0.00 | 52 | 1016.1 |
| 20260507141007 | 13 | 323 | 9.7 | 25.7 | 0.00 | 0.00 | 0.00 | 53 | 1016.1 |
| 20260507140506 | 13 | 324 | 9.7 | 20.9 | 0.00 | 0.00 | 0.00 | 53 | 1016.0 |
| 20260507140007 | 13 | 324 | 9.7 | 20.9 | 0.00 | 0.00 | 0.00 | 53 | 1016.0 |
| 20260507135506 | 13 | 320 | 9.7 | 22.5 | 0.00 | 0.00 | 0.00 | 54 | 1016.1 |
| 20260507135007 | 13 | 320 | 9.7 | 22.5 | 0.00 | 0.00 | 0.00 | 55 | 1016.0 |
| 20260507134507 | 13 | 323 | 11.3 | 24.1 | 0.00 | 0.00 | 0.00 | 55 | 1016.1 |
| 20260507134006 | 13 | 324 | 11.3 | 24.1 | 0.00 | 0.00 | 0.00 | 55 | 1016.0 |
| 20260507133006 | 13 | 327 | 8.0 | 19.3 | 0.00 | 0.00 | 0.00 | 56 | 1016.0 |
| 20260507132006 | 12 | 328 | 9.7 | 20.9 | 0.00 | 0.00 | 0.00 | 57 | 1015.9 |
| 20260507131506 | 12 | 326 | 9.7 | 20.9 | 0.00 | 0.00 | 0.00 | 57 | 1015.9 |
| 20260507131006 | 12 | 323 | 8.0 | 25.7 | 0.00 | 0.00 | 0.00 | 57 | 1016.0 |
| 20260507130506 | 12 | 322 | 4.8 | 25.7 | 0.00 | 0.00 | 0.00 | 58 | 1015.9 |
| 20260507130006 | 12 | 311 | 1.6 | 16.1 | 0.00 | 0.00 | 0.00 | 59 | 1015.9 |
| 20260507125007 | 12 | 265 | 0.0 | 4.8 | 0.00 | 0.00 | 0.00 | 60 | 1016.0 |
| 20260507124507 | 12 | 257 | 1.6 | 9.7 | 0.00 | 0.00 | 0.00 | 58 | 1015.9 |
| 20260507124006 | 12 | 255 | 3.2 | 12.9 | 0.00 | 0.00 | 0.00 | 57 | 1015.8 |
| 20260507123506 | 12 | 278 | 4.8 | 19.3 | 0.00 | 0.00 | 0.00 | 57 | 1015.9 |
| 20260507123007 | 12 | 294 | 3.2 | 19.3 | 0.00 | 0.00 | 0.00 | 58 | 1015.8 |
| 20260507122506 | 11 | 287 | 0.0 | 8.0 | 0.00 | 0.00 | 0.00 | 61 | 1015.8 |
| 20260507122006 | 11 | 255 | 0.0 | 1.6 | 0.00 | 0.00 | 0.00 | 62 | 1015.9 |
| 20260507121506 | 12 | 308 | 0.0 | 1.6 | 0.00 | 0.00 | 0.00 | 62 | 1015.7 |
| 20260507121006 | 12 | 295 | 0.0 | 1.6 | 0.00 | 0.00 | 0.00 | 61 | 1015.9 |
| 20260507120506 | 12 | 254 | 0.0 | 4.8 | 0.00 | 0.00 | 0.00 | 60 | 1015.9 |
| 20260507115007 | 13 | 266 | 1.6 | 11.3 | 0.00 | 0.00 | 0.00 | 57 | 1015.7 |
| 20260507114506 | 13 | 306 | 1.6 | 9.7 | 0.00 | 0.00 | 0.00 | 57 | 1015.6 |
| 20260507114006 | 13 | 325 | 3.2 | 14.5 | 0.00 | 0.00 | 0.00 | 57 | 1015.7 |
| 20260507113505 | 13 | 323 | 4.8 | 14.5 | 0.00 | 0.00 | 0.00 | 57 | 1015.7 |
| 20260507112506 | 13 | 321 | 3.2 | 9.7 | 0.00 | 0.00 | 0.00 | 58 | 1015.8 |
| 20260507112006 | 13 | 321 | 3.2 | 9.7 | 0.00 | 0.00 | 0.00 | 59 | 1015.8 |
| 20260507111006 | 13 | 323 | 4.8 | 12.9 | 0.00 | 0.00 | 0.00 | 58 | 1015.8 |
| 20260507110506 | 13 | 324 | 4.8 | 14.5 | 0.00 | 0.00 | 0.00 | 58 | 1015.8 |
| 20260507110006 | 13 | 322 | 6.4 | 14.5 | 0.00 | 0.00 | 0.00 | 58 | 1015.8 |
| 20260507105506 | 13 | 328 | 6.4 | 14.5 | 0.00 | 0.00 | 0.00 | 57 | 1015.8 |
| 20260507105006 | 14 | 330 | 4.8 | 12.9 | 0.00 | 0.00 | 0.00 | 56 | 1015.6 |
| 20260507104506 | 14 | 326 | 4.8 | 16.1 | 0.00 | 0.00 | 0.00 | 56 | 1015.6 |
| 20260507104006 | 14 | 324 | 6.4 | 16.1 | 0.00 | 0.00 | 0.00 | 56 | 1015.7 |
| 20260507103505 | 14 | 325 | 8.0 | 17.7 | 0.00 | 0.00 | 0.00 | 56 | 1015.6 |
| 20260507103006 | 14 | 327 | 9.7 | 17.7 | 0.00 | 0.00 | 0.00 | 56 | 1015.6 |
| 20260507102505 | 14 | 325 | 9.7 | 19.3 | 0.00 | 0.00 | 0.00 | 56 | 1015.4 |
| 20260507102007 | 14 | 325 | 8.0 | 19.3 | 0.00 | 0.00 | 0.00 | 57 | 1015.5 |
| 20260507101507 | 14 | 325 | 6.4 | 16.1 | 0.00 | 0.00 | 0.00 | 57 | 1015.5 |
| 20260507101005 | 14 | 326 | 6.4 | 16.1 | 0.00 | 0.00 | 0.00 | 56 | 1015.6 |
| 20260507100006 | 14 | 333 | 3.2 | 12.9 | 0.00 | 0.00 | 0.00 | 56 | 1015.7 |
| 20260507095505 | 14 | 317 | 3.2 | 12.9 | 0.00 | 0.00 | 0.00 | 56 | 1015.6 |
| 20260507095006 | 14 | 291 | 1.6 | 6.4 | 0.00 | 0.00 | 0.00 | 56 | 1015.4 |
| 20260507094505 | 14 | 293 | 1.6 | 11.3 | 0.00 | 0.00 | 0.00 | 57 | 1015.5 |
| 20260507094006 | 14 | 285 | 3.2 | 12.9 | 0.00 | 0.00 | 0.00 | 57 | 1015.5 |
| 20260507093505 | 14 | 276 | 3.2 | 12.9 | 0.00 | 0.00 | 0.00 | 57 | 1015.4 |
| 20260507093006 | 14 | 268 | 1.6 | 11.3 | 0.00 | 0.00 | 0.00 | 57 | 1015.6 |
| 20260507092505 | 14 | 288 | 1.6 | 11.3 | 0.00 | 0.00 | 0.00 | 57 | 1015.6 |
| 20260507092006 | 14 | 299 | 1.6 | 8.0 | 0.00 | 0.00 | 0.00 | 58 | 1015.6 |
| 20260507091506 | 14 | 288 | 1.6 | 8.0 | 0.00 | 0.00 | 0.00 | 58 | 1015.5 |
| 20260507091006 | 14 | 257 | 0.0 | 1.6 | 0.00 | 0.00 | 0.00 | 59 | 1015.4 |
| 20260507090506 | 14 | 56 | 0.0 | 6.4 | 0.00 | 0.00 | 0.00 | 59 | 1015.4 |
| 20260507090006 | 15 | 51 | 0.0 | 6.4 | 0.00 | 0.00 | 0.00 | 58 | 1015.4 |
| 20260507085006 | 15 | 311 | 3.2 | 16.1 | 0.00 | 0.00 | 0.00 | 57 | 1015.5 |
| 20260507084506 | 15 | 319 | 6.4 | 16.1 | 0.00 | 0.00 | 0.00 | 57 | 1015.2 |
| 20260507084006 | 15 | 321 | 6.4 | 17.7 | 0.00 | 0.00 | 0.00 | 57 | 1015.0 |
| 20260507083005 | 15 | 323 | 4.8 | 19.3 | 0.00 | 0.00 | 0.00 | 57 | 1015.0 |
| 20260507082506 | 15 | 326 | 4.8 | 16.1 | 0.00 | 0.00 | 0.00 | 57 | 1014.9 |
| 20260507081506 | 15 | 321 | 3.2 | 17.7 | 0.00 | 0.00 | 0.00 | 57 | 1014.9 |
| 20260507080509 | 15 | 315 | 4.8 | 17.7 | 0.00 | 0.00 | 0.00 | 57 | 1014.8 |
| 20260507080006 | 15 | 313 | 4.8 | 17.7 | 0.00 | 0.00 | 0.00 | 57 | 1014.8 |
| 20260507075505 | 15 | 317 | 8.0 | 25.7 | 0.00 | 0.00 | 0.00 | 56 | 1014.8 |
| 20260507074506 | 16 | 327 | 6.4 | 17.7 | 0.00 | 0.00 | 0.00 | 55 | 1014.9 |
| 20260507074005 | 16 | 330 | 8.0 | 17.7 | 0.00 | 0.00 | 0.00 | 55 | 1014.9 |
| 20260507073506 | 16 | 333 | 9.7 | 20.9 | 0.00 | 0.00 | 0.00 | 54 | 1014.8 |
| 20260507073006 | 16 | 332 | 8.0 | 22.5 | 0.00 | 0.00 | 0.00 | 54 | 1014.7 |
| 20260507072006 | 16 | 331 | 9.7 | 24.1 | 0.00 | 0.00 | 0.00 | 54 | 1014.8 |
| 20260507071505 | 16 | 332 | 9.7 | 17.7 | 0.00 | 0.00 | 0.00 | 54 | 1014.8 |
| 20260507071006 | 16 | 331 | 9.7 | 17.7 | 0.00 | 0.00 | 0.00 | 55 | 1014.8 |
| 20260507070505 | 16 | 330 | 9.7 | 19.3 | 0.00 | 0.00 | 0.00 | 55 | 1014.8 |
| 20260507070010 | 16 | 327 | 8.0 | 19.3 | 0.00 | 0.00 | 0.00 | 55 | 1014.9 |
| 20260507065505 | 16 | 327 | 3.2 | 16.1 | 0.00 | 0.00 | 0.00 | 56 | 1015.0 |
| 20260507065006 | 16 | 336 | 3.2 | 11.3 | 0.00 | 0.00 | 0.00 | 56 | 1014.9 |
| 20260507063505 | 16 | 331 | 8.0 | 17.7 | 0.00 | 0.00 | 0.00 | 54 | 1015.1 |
| 20260507063005 | 16 | 325 | 11.3 | 30.6 | 0.00 | 0.00 | 0.00 | 54 | 1015.0 |
| 20260507062505 | 16 | 323 | 11.3 | 30.6 | 0.00 | 0.00 | 0.00 | 53 | 1014.8 |
| 20260507061506 | 16 | 326 | 8.0 | 20.9 | 0.00 | 0.00 | 0.00 | 54 | 1014.9 |
| 20260507061005 | 16 | 322 | 8.0 | 17.7 | 0.00 | 0.00 | 0.00 | 54 | 1015.1 |
| 20260507060505 | 16 | 326 | 6.4 | 14.5 | 0.00 | 0.00 | 0.00 | 54 | 1015.1 |
| 20260507060006 | 16 | 328 | 6.4 | 14.5 | 0.00 | 0.00 | 0.00 | 53 | 1015.2 |
| 20260507055505 | 17 | 326 | 6.4 | 12.9 | 0.00 | 0.00 | 0.00 | 53 | 1015.2 |
| 20260507055005 | 17 | 322 | 3.2 | 9.7 | 0.00 | 0.00 | 0.00 | 52 | 1015.1 |
| 20260507054506 | 17 | 326 | 4.8 | 14.5 | 0.00 | 0.00 | 0.00 | 52 | 1015.1 |
| 20260507054005 | 17 | 331 | 4.8 | 14.5 | 0.00 | 0.00 | 0.00 | 51 | 1015.1 |
| 20260507053505 | 17 | 321 | 4.8 | 14.5 | 0.00 | 0.00 | 0.00 | 51 | 1015.1 |
| 20260507053006 | 17 | 316 | 4.8 | 16.1 | 0.00 | 0.00 | 0.00 | 50 | 1015.1 |
| 20260507052505 | 17 | 319 | 6.4 | 17.7 | 0.00 | 0.00 | 0.00 | 49 | 1015.0 |
| 20260507052005 | 18 | 319 | 6.4 | 17.7 | 0.00 | 0.00 | 0.00 | 48 | 1015.0 |
| 20260507051005 | 18 | 323 | 4.8 | 17.7 | 0.00 | 0.00 | 0.00 | 47 | 1015.0 |
| 20260507050505 | 18 | 327 | 6.4 | 17.7 | 0.00 | 0.00 | 0.00 | 46 | 1014.9 |
| 20260507050006 | 18 | 325 | 6.4 | 16.1 | 0.00 | 0.00 | 0.00 | 46 | 1015.0 |
| 20260507045505 | 19 | 324 | 6.4 | 16.1 | 0.00 | 0.00 | 0.00 | 45 | 1015.0 |
| 20260507045005 | 19 | 326 | 8.0 | 16.1 | 0.00 | 0.00 | 0.00 | 44 | 1014.9 |
| 20260507044506 | 20 | 328 | 6.4 | 16.1 | 0.00 | 0.00 | 0.00 | 43 | 1014.9 |
| 20260507044005 | 20 | 328 | 4.8 | 14.5 | 0.00 | 0.00 | 0.00 | 42 | 1015.0 |
| 20260507043505 | 20 | 328 | 3.2 | 14.5 | 0.00 | 0.00 | 0.00 | 41 | 1015.0 |
| 20260507043006 | 20 | 317 | 3.2 | 9.7 | 0.00 | 0.00 | 0.00 | 40 | 1015.0 |
| 20260507041505 | 21 | 280 | 1.6 | 8.0 | 0.00 | 0.00 | 0.00 | 39 | 1014.9 |
| 20260507041005 | 21 | 300 | 3.2 | 9.7 | 0.00 | 0.00 | 0.00 | 39 | 1014.9 |
| 20260507040505 | 21 | 279 | 3.2 | 9.7 | 0.00 | 0.00 | 0.00 | 37 | 1014.7 |
| 20260507040005 | 21 | 255 | 3.2 | 9.7 | 0.00 | 0.00 | 0.00 | 36 | 1014.7 |
| 20260507035505 | 21 | 252 | 3.2 | 8.0 | 0.00 | 0.00 | 0.00 | 36 | 1014.5 |
| 20260507035005 | 21 | 250 | 4.8 | 9.7 | 0.00 | 0.00 | 0.00 | 36 | 1014.5 |
| 20260507033505 | 21 | 255 | 4.8 | 9.7 | 0.00 | 0.00 | 0.00 | 35 | 1014.4 |
| 20260507033005 | 21 | 256 | 6.4 | 14.5 | 0.00 | 0.00 | 0.00 | 35 | 1014.3 |
| 20260507032505 | 22 | 256 | 6.4 | 14.5 | 0.00 | 0.00 | 0.00 | 35 | 1014.3 |
| 20260507032005 | 22 | 252 | 6.4 | 12.9 | 0.00 | 0.00 | 0.00 | 35 | 1014.1 |
| 20260507031505 | 22 | 253 | 6.4 | 12.9 | 0.00 | 0.00 | 0.00 | 34 | 1014.1 |
| 20260507031005 | 22 | 259 | 6.4 | 12.9 | 0.00 | 0.00 | 0.00 | 34 | 1014.1 |
| 20260507030005 | 22 | 255 | 6.4 | 14.5 | 0.00 | 0.00 | 0.00 | 33 | 1014.1 |
| 20260507025505 | 22 | 259 | 6.4 | 14.5 | 0.00 | 0.00 | 0.00 | 33 | 1014.1 |
| 20260507025005 | 23 | 260 | 6.4 | 14.5 | 0.00 | 0.00 | 0.00 | 33 | 1014.0 |
| 20260507024505 | 23 | 260 | 6.4 | 12.9 | 0.00 | 0.00 | 0.00 | 33 | 1014.0 |
| 20260507024005 | 23 | 256 | 6.4 | 12.9 | 0.00 | 0.00 | 0.00 | 32 | 1013.9 |
| 20260507023505 | 23 | 255 | 8.0 | 14.5 | 0.00 | 0.00 | 0.00 | 32 | 1013.8 |
| 20260507023006 | 23 | 257 | 9.7 | 19.3 | 0.00 | 0.00 | 0.00 | 32 | 1013.8 |
| 20260507022505 | 23 | 255 | 12.9 | 24.1 | 0.00 | 0.00 | 0.00 | 31 | 1013.7 |
| 20260507021505 | 23 | 258 | 9.7 | 24.1 | 0.00 | 0.00 | 0.00 | 31 | 1013.6 |
| 20260507021005 | 23 | 253 | 9.7 | 19.3 | 0.00 | 0.00 | 0.00 | 31 | 1013.6 |
| 20260507020504 | 23 | 256 | 9.7 | 20.9 | 0.00 | 0.00 | 0.00 | 31 | 1013.6 |
| 20260507020005 | 23 | 256 | 9.7 | 20.9 | 0.00 | 0.00 | 0.00 | 31 | 1013.6 |
| 20260507015504 | 23 | 254 | 11.3 | 20.9 | 0.00 | 0.00 | 0.00 | 31 | 1013.6 |
| 20260507015005 | 23 | 255 | 11.3 | 20.9 | 0.00 | 0.00 | 0.00 | 31 | 1013.5 |
| 20260507014505 | 23 | 256 | 11.3 | 24.1 | 0.00 | 0.00 | 0.00 | 31 | 1013.5 |
| 20260507014005 | 23 | 256 | 11.3 | 24.1 | 0.00 | 0.00 | 0.00 | 30 | 1013.5 |
| 20260507013505 | 23 | 257 | 9.7 | 20.9 | 0.00 | 0.00 | 0.00 | 30 | 1013.5 |
| 20260507013005 | 23 | 260 | 8.0 | 17.7 | 0.00 | 0.00 | 0.00 | 31 | 1013.4 |
| 20260507012505 | 23 | 261 | 8.0 | 17.7 | 0.00 | 0.00 | 0.00 | 31 | 1013.5 |
| 20260507011505 | 23 | 263 | 9.7 | 17.7 | 0.00 | 0.00 | 0.00 | 31 | 1013.5 |
| 20260507011004 | 23 | 262 | 9.7 | 19.3 | 0.00 | 0.00 | 0.00 | 31 | 1013.5 |
| 20260507010504 | 23 | 258 | 9.7 | 20.9 | 0.00 | 0.00 | 0.00 | 31 | 1013.5 |
| 20260507005504 | 23 | 255 | 8.0 | 16.1 | 0.00 | 0.00 | 0.00 | 31 | 1013.5 |
| 20260507005005 | 23 | 259 | 6.4 | 16.1 | 0.00 | 0.00 | 0.00 | 32 | 1013.5 |
| 20260507004505 | 24 | 260 | 6.4 | 17.7 | 0.00 | 0.00 | 0.00 | 32 | 1013.5 |
| 20260507004005 | 24 | 262 | 8.0 | 17.7 | 0.00 | 0.00 | 0.00 | 33 | 1013.4 |
| 20260507003504 | 24 | 259 | 8.0 | 17.7 | 0.00 | 0.00 | 0.00 | 33 | 1013.4 |
| 20260507003005 | 24 | 260 | 8.0 | 17.7 | 0.00 | 0.00 | 0.00 | 33 | 1013.4 |
| 20260507002505 | 24 | 258 | 8.0 | 14.5 | 0.00 | 0.00 | 0.00 | 33 | 1013.3 |
| 20260507002005 | 24 | 258 | 9.7 | 20.9 | 0.00 | 0.00 | 0.00 | 33 | 1013.2 |
| 20260507001505 | 24 | 258 | 9.7 | 20.9 | 0.00 | 0.00 | 0.00 | 32 | 1013.2 |
| 20260507001004 | 25 | 253 | 6.4 | 16.1 | 0.00 | 0.00 | 0.00 | 32 | 1013.1 |
| 20260507000505 | 25 | 255 | 8.0 | 17.7 | 0.00 | 0.00 | 0.00 | 33 | 1013.0 |
| 20260507000005 | 25 | 257 | 9.7 | 17.7 | 0.00 | 0.00 | 0.00 | 32 | 1013.0 |
| 20260506235506 | 25 | 257 | 9.7 | 19.3 | 0.00 | 0.00 | 0.00 | 31 | 1013.0 |
| 20260506235004 | 25 | 256 | 8.0 | 19.3 | 0.00 | 0.00 | 0.00 | 32 | 1012.9 |
| 20260506234505 | 25 | 259 | 6.4 | 19.3 | 0.00 | 0.00 | 0.00 | 32 | 1012.9 |
| 20260506233505 | 25 | 258 | 8.0 | 20.9 | 0.00 | 0.00 | 0.00 | 32 | 1012.7 |
| 20260506233004 | 26 | 254 | 9.7 | 19.3 | 0.00 | 0.00 | 0.00 | 31 | 1012.7 |
| 20260506232505 | 26 | 252 | 8.0 | 19.3 | 0.00 | 0.00 | 0.00 | 30 | 1012.7 |
| 20260506232005 | 26 | 256 | 8.0 | 17.7 | 0.00 | 0.00 | 0.00 | 29 | 1012.7 |
| 20260506231505 | 26 | 258 | 6.4 | 16.1 | 0.00 | 0.00 | 0.00 | 30 | 1012.8 |
| 20260506231005 | 26 | 258 | 4.8 | 14.5 | 0.00 | 0.00 | 0.00 | 31 | 1012.8 |
| 20260506230509 | 26 | 261 | 6.4 | 12.9 | 0.00 | 0.00 | 0.00 | 30 | 1012.8 |
| 20260506230004 | 26 | 257 | 8.0 | 17.7 | 0.00 | 0.00 | 0.00 | 29 | 1012.8 |
| 20260506225505 | 27 | 255 | 8.0 | 17.7 | 0.00 | 0.00 | 0.00 | 27 | 1012.8 |
| 20260506225004 | 27 | 256 | 8.0 | 19.3 | 0.00 | 0.00 | 0.00 | 27 | 1012.8 |
| 20260506224004 | 27 | 252 | 8.0 | 20.9 | 0.00 | 0.00 | 0.00 | 27 | 1012.9 |
| 20260506223505 | 28 | 251 | 6.4 | 16.1 | 0.00 | 0.00 | 0.00 | 26 | 1012.9 |
| 20260506223005 | 28 | 249 | 4.8 | 14.5 | 0.00 | 0.00 | 0.00 | 27 | 1012.8 |
| 20260506222504 | 28 | 252 | 6.4 | 17.7 | 0.00 | 0.00 | 0.00 | 28 | 1012.9 |
| 20260506222005 | 28 | 256 | 8.0 | 17.7 | 0.00 | 0.00 | 0.00 | 27 | 1013.0 |
| 20260506221004 | 28 | 259 | 9.7 | 24.1 | 0.00 | 0.00 | 0.00 | 29 | 1013.0 |
| 20260506220504 | 28 | 256 | 9.7 | 24.1 | 0.00 | 0.00 | 0.00 | 28 | 1013.0 |
| 20260506215505 | 29 | 254 | 6.4 | 16.1 | 0.00 | 0.00 | 0.00 | 26 | 1012.9 |
| 20260506214004 | 30 | 289 | 6.4 | 17.7 | 0.00 | 0.00 | 0.00 | 25 | 1012.9 |
| 20260506213504 | 30 | 299 | 6.4 | 19.3 | 0.00 | 0.00 | 0.00 | 25 | 1012.8 |
| 20260506212504 | 31 | 311 | 4.8 | 14.5 | 0.00 | 0.00 | 0.00 | 26 | 1012.6 |
| 20260506212004 | 30 | 314 | 4.8 | 12.9 | 0.00 | 0.00 | 0.00 | 27 | 1012.5 |
| 20260506211504 | 31 | 315 | 4.8 | 12.9 | 0.00 | 0.00 | 0.00 | 24 | 1012.6 |
| 20260506211004 | 31 | 307 | 4.8 | 11.3 | 0.00 | 0.00 | 0.00 | 26 | 1012.7 |
| 20260506205504 | 31 | 305 | 4.8 | 20.9 | 0.00 | 0.00 | 0.00 | 25 | 1012.7 |
| 20260506205004 | 31 | 303 | 3.2 | 14.5 | 0.00 | 0.00 | 0.00 | 25 | 1012.7 |
| 20260506204505 | 31 | 318 | 4.8 | 14.5 | 0.00 | 0.00 | 0.00 | 25 | 1012.8 |
| 20260506204005 | 31 | 312 | 4.8 | 17.7 | 0.00 | 0.00 | 0.00 | 26 | 1012.7 |
| 20260506203504 | 30 | 316 | 4.8 | 17.7 | 0.00 | 0.00 | 0.00 | 27 | 1012.7 |
| 20260506203004 | 30 | 318 | 6.4 | 17.7 | 0.00 | 0.00 | 0.00 | 27 | 1012.9 |
| 20260506202505 | 30 | 306 | 6.4 | 17.7 | 0.00 | 0.00 | 0.00 | 27 | 1013.0 |
| 20260506202004 | 31 | 298 | 4.8 | 17.7 | 0.00 | 0.00 | 0.00 | 26 | 1012.9 |
| 20260506201004 | 30 | 308 | 4.8 | 19.3 | 0.00 | 0.00 | 0.00 | 28 | 1013.1 |
| 20260506200503 | 30 | 307 | 4.8 | 14.5 | 0.00 | 0.00 | 0.00 | 28 | 1012.9 |
| 20260506200004 | 30 | 295 | 4.8 | 11.3 | 0.00 | 0.00 | 0.00 | 28 | 1013.0 |
| 20260506195504 | 30 | 272 | 3.2 | 8.0 | 0.00 | 0.00 | 0.00 | 28 | 1013.1 |
| 20260506195004 | 31 | 265 | 3.2 | 6.4 | 0.00 | 0.00 | 0.00 | 27 | 1013.2 |
| 20260506194505 | 31 | 327 | 1.6 | 6.4 | 0.00 | 0.00 | 0.00 | 27 | 1013.2 |
| 20260506194004 | 30 | 65 | 1.6 | 6.4 | 0.00 | 0.00 | 0.00 | 29 | 1013.2 |
| 20260506193504 | 31 | 217 | 1.6 | 9.7 | 0.00 | 0.00 | 0.00 | 28 | 1013.2 |
| 20260506193004 | 31 | 213 | 1.6 | 9.7 | 0.00 | 0.00 | 0.00 | 27 | 1013.3 |
| 20260506192504 | 31 | 166 | 1.6 | 6.4 | 0.00 | 0.00 | 0.00 | 28 | 1013.3 |
| 20260506192010 | 30 | 105 | 1.6 | 6.4 | 0.00 | 0.00 | 0.00 | 30 | 1013.3 |
| 20260506191504 | 30 | 277 | 1.6 | 4.8 | 0.00 | 0.00 | 0.00 | 29 | 1013.3 |
| 20260506190005 | 29 | 82 | 1.6 | 4.8 | 0.00 | 0.00 | 0.00 | 30 | 1013.2 |
| 20260506185004 | 30 | 228 | 1.6 | 9.7 | 0.00 | 0.00 | 0.00 | 29 | 1013.4 |
| 20260506184505 | 30 | 250 | 1.6 | 9.7 | 0.00 | 0.00 | 0.00 | 29 | 1013.4 |
| 20260506184004 | 28 | 324 | 3.2 | 8.0 | 0.00 | 0.00 | 0.00 | 30 | 1013.5 |
| 20260506183005 | 28 | 259 | 1.6 | 6.4 | 0.00 | 0.00 | 0.00 | 30 | 1013.6 |
| 20260506182004 | 28 | 325 | 3.2 | 9.7 | 0.00 | 0.00 | 0.00 | 31 | 1013.6 |
| 20260506181004 | 28 | 262 | 1.6 | 6.4 | 0.00 | 0.00 | 0.00 | 33 | 1013.7 |
| 20260506180504 | 27 | 260 | 3.2 | 6.4 | 0.00 | 0.00 | 0.00 | 34 | 1013.7 |
| 20260506180005 | 27 | 248 | 3.2 | 6.4 | 0.00 | 0.00 | 0.00 | 33 | 1013.7 |
| 20260506175504 | 28 | 238 | 1.6 | 6.4 | 0.00 | 0.00 | 0.00 | 33 | 1013.7 |
| 20260506175004 | 28 | 225 | 0.0 | 3.2 | 0.00 | 0.00 | 0.00 | 35 | 1013.7 |
| 20260506174504 | 27 | 248 | 1.6 | 4.8 | 0.00 | 0.00 | 0.00 | 37 | 1013.7 |
| 20260506174004 | 26 | 313 | 1.6 | 12.9 | 0.00 | 0.00 | 0.00 | 36 | 1013.7 |
| 20260506173503 | 26 | 344 | 3.2 | 12.9 | 0.00 | 0.00 | 0.00 | 36 | 1013.8 |
| 20260506172503 | 27 | 50 | 1.6 | 6.4 | 0.00 | 0.00 | 0.00 | 37 | 1013.9 |
| 20260506172004 | 26 | 45 | 1.6 | 6.4 | 0.00 | 0.00 | 0.00 | 36 | 1013.9 |
| 20260506171504 | 26 | 62 | 1.6 | 6.4 | 0.00 | 0.00 | 0.00 | 37 | 1013.8 |
| 20260506171004 | 27 | 65 | 1.6 | 6.4 | 0.00 | 0.00 | 0.00 | 36 | 1013.9 |
| 20260506170503 | 27 | 45 | 1.6 | 4.8 | 0.00 | 0.00 | 0.00 | 36 | 1014.0 |
| 20260506170004 | 26 | 59 | 1.6 | 4.8 | 0.00 | 0.00 | 0.00 | 37 | 1013.8 |
| 20260506165504 | 26 | 37 | 1.6 | 4.8 | 0.00 | 0.00 | 0.00 | 37 | 1013.8 |
| 20260506165004 | 26 | 23 | 1.6 | 4.8 | 0.00 | 0.00 | 0.00 | 38 | 1013.8 |
| 20260506164504 | 26 | 183 | 3.2 | 11.3 | 0.00 | 0.00 | 0.00 | 37 | 1014.0 |
| 20260506163503 | 26 | 206 | 3.2 | 11.3 | 0.00 | 0.00 | 0.00 | 38 | 1013.9 |
| 20260506163004 | 26 | 246 | 1.6 | 9.7 | 0.00 | 0.00 | 0.00 | 39 | 1014.0 |
| 20260506162503 | 25 | 244 | 1.6 | 8.0 | 0.00 | 0.00 | 0.00 | 40 | 1014.1 |
| 20260506162004 | 25 | 229 | 1.6 | 8.0 | 0.00 | 0.00 | 0.00 | 39 | 1014.1 |
| 20260506161503 | 25 | 285 | 1.6 | 6.4 | 0.00 | 0.00 | 0.00 | 41 | 1014.2 |
| 20260506161004 | 26 | 297 | 1.6 | 6.4 | 0.00 | 0.00 | 0.00 | 39 | 1014.3 |
| 20260506160503 | 26 | 261 | 0.0 | 1.6 | 0.00 | 0.00 | 0.00 | 42 | 1014.4 |
| 20260506160005 | 25 | 258 | 0.0 | 1.6 | 0.00 | 0.00 | 0.00 | 41 | 1014.4 |
| 20260506155504 | 25 | 253 | 0.0 | 3.2 | 0.00 | 0.00 | 0.00 | 43 | 1014.4 |
| 20260506155003 | 23 | 264 | 1.6 | 8.0 | 0.00 | 0.00 | 0.00 | 43 | 1014.4 |
| 20260506154504 | 23 | 269 | 1.6 | 8.0 | 0.00 | 0.00 | 0.00 | 44 | 1014.3 |
| 20260506154004 | 23 | 244 | 1.6 | 8.0 | 0.00 | 0.00 | 0.00 | 45 | 1014.4 |
| 20260506153503 | 23 | 243 | 3.2 | 8.0 | 0.00 | 0.00 | 0.00 | 43 | 1014.3 |
| 20260506153004 | 23 | 289 | 3.2 | 14.5 | 0.00 | 0.00 | 0.00 | 43 | 1014.4 |
| 20260506152506 | 22 | 312 | 4.8 | 17.7 | 0.00 | 0.00 | 0.00 | 43 | 1014.3 |
| 20260506152006 | 22 | 321 | 4.8 | 17.7 | 0.00 | 0.00 | 0.00 | 43 | 1014.4 |
| 20260506151507 | 22 | 324 | 3.2 | 8.0 | 0.00 | 0.00 | 0.00 | 44 | 1014.4 |
| 20260506151006 | 22 | 328 | 1.6 | 8.0 | 0.00 | 0.00 | 0.00 | 45 | 1014.5 |
| 20260506150006 | 22 | 155 | 0.0 | 1.6 | 0.00 | 0.00 | 0.00 | 47 | 1014.7 |
| 20260506145507 | 21 | 166 | 0.0 | 3.2 | 0.00 | 0.00 | 0.00 | 49 | 1014.6 |
| 20260506145006 | 20 | 195 | 0.0 | 3.2 | 0.00 | 0.00 | 0.00 | 51 | 1014.5 |
| 20260506144006 | 20 | 207 | 0.0 | 3.2 | 0.00 | 0.00 | 0.00 | 51 | 1014.6 |